Owensboro, Kentucky
Current Conditions -  °F | °C
As of 9:56 AM on Saturday 25 Oct 2014 (Local Time) from KOWB Reporting Station
Scattered Clouds Scattered Clouds  
Wind Chill: 63°   Ceiling: Unl
Heat Index: 63°   Visibility: 10mi
Dew Point: 57°   Wind: 6mph
Humidity: 80%   Direction: 220°SW
Pressure: 30.04"   Gusts: NA
Location:  37.77°N, 87.11°W
Report Text: KOWB 251456Z 22005KT 10SM SCT043 17/14 A3004 RMK AO2 50003 T01720138 SLP171
Loading
Personal Weather Stations






























Interactive Weather Map
Tropical Storm Tracking
New forecast layout! Learn more

10-Day Weather Forecast

Advertisements
Track Severe Weather on mobile